sensor_id;sensor_type;location;lat;lon;timestamp;temperature;humidity
25688;DHT22;17407;51.120;3.702;2022-08-03T00:02:23;22.20;99.90
25688;DHT22;17407;51.120;3.702;2022-08-03T00:04:49;22.20;99.90
25688;DHT22;17407;51.120;3.702;2022-08-03T00:07:16;22.20;99.90
25688;DHT22;17407;51.120;3.702;2022-08-03T00:09:42;22.20;99.90
25688;DHT22;17407;51.120;3.702;2022-08-03T00:12:08;22.10;99.90
25688;DHT22;17407;51.120;3.702;2022-08-03T00:14:35;22.10;99.90
25688;DHT22;17407;51.120;3.702;2022-08-03T00:17:00;22.10;99.90
25688;DHT22;17407;51.120;3.702;2022-08-03T00:19:26;22.10;99.90
25688;DHT22;17407;51.120;3.702;2022-08-03T00:21:52;22.00;99.90
25688;DHT22;17407;51.120;3.702;2022-08-03T00:24:18;22.00;99.90
25688;DHT22;17407;51.120;3.702;2022-08-03T00:26:43;22.00;99.90
25688;DHT22;17407;51.120;3.702;2022-08-03T00:29:09;22.00;99.90
25688;DHT22;17407;51.120;3.702;2022-08-03T00:31:35;22.00;99.90
25688;DHT22;17407;51.120;3.702;2022-08-03T00:34:01;21.90;99.90
25688;DHT22;17407;51.120;3.702;2022-08-03T00:36:27;21.90;99.90
25688;DHT22;17407;51.120;3.702;2022-08-03T00:38:53;21.90;99.90
25688;DHT22;17407;51.120;3.702;2022-08-03T00:41:19;21.90;99.90
25688;DHT22;17407;51.120;3.702;2022-08-03T00:43:45;21.90;99.90
25688;DHT22;17407;51.120;3.702;2022-08-03T00:46:11;21.80;99.90
25688;DHT22;17407;51.120;3.702;2022-08-03T00:48:37;21.80;99.90
25688;DHT22;17407;51.120;3.702;2022-08-03T00:51:03;21.80;99.90
25688;DHT22;17407;51.120;3.702;2022-08-03T00:53:30;21.80;99.90
25688;DHT22;17407;51.120;3.702;2022-08-03T00:55:55;21.80;99.90
25688;DHT22;17407;51.120;3.702;2022-08-03T00:58:21;21.70;99.90
25688;DHT22;17407;51.120;3.702;2022-08-03T01:00:48;21.70;99.90
25688;DHT22;17407;51.120;3.702;2022-08-03T01:03:14;21.70;99.90
25688;DHT22;17407;51.120;3.702;2022-08-03T01:06:16;21.70;99.90
25688;DHT22;17407;51.120;3.702;2022-08-03T01:08:53;21.70;99.90
25688;DHT22;17407;51.120;3.702;2022-08-03T01:14:14;21.70;99.90
25688;DHT22;17407;51.120;3.702;2022-08-03T01:17:22;21.70;99.90
25688;DHT22;17407;51.120;3.702;2022-08-03T01:19:52;21.60;99.90
25688;DHT22;17407;51.120;3.702;2022-08-03T01:30:54;21.50;99.90
25688;DHT22;17407;51.120;3.702;2022-08-03T01:33:28;21.50;99.90
25688;DHT22;17407;51.120;3.702;2022-08-03T01:36:04;21.50;99.90
25688;DHT22;17407;51.120;3.702;2022-08-03T01:38:37;21.50;99.90
25688;DHT22;17407;51.120;3.702;2022-08-03T01:41:09;21.50;99.90
25688;DHT22;17407;51.120;3.702;2022-08-03T01:43:38;21.50;99.90
25688;DHT22;17407;51.120;3.702;2022-08-03T01:46:06;21.50;99.90
25688;DHT22;17407;51.120;3.702;2022-08-03T01:48:34;21.40;99.90
25688;DHT22;17407;51.120;3.702;2022-08-03T01:51:01;21.50;99.90
25688;DHT22;17407;51.120;3.702;2022-08-03T01:53:27;21.50;99.90
25688;DHT22;17407;51.120;3.702;2022-08-03T01:55:54;21.50;99.90
25688;DHT22;17407;51.120;3.702;2022-08-03T01:58:21;21.50;99.90
25688;DHT22;17407;51.120;3.702;2022-08-03T02:00:49;21.40;99.90
25688;DHT22;17407;51.120;3.702;2022-08-03T02:03:16;21.40;99.90
25688;DHT22;17407;51.120;3.702;2022-08-03T02:05:44;21.40;99.90
25688;DHT22;17407;51.120;3.702;2022-08-03T02:08:12;21.40;99.90
25688;DHT22;17407;51.120;3.702;2022-08-03T02:10:40;21.30;99.90
25688;DHT22;17407;51.120;3.702;2022-08-03T02:13:07;21.30;99.90
25688;DHT22;17407;51.120;3.702;2022-08-03T02:15:35;21.30;99.90
25688;DHT22;17407;51.120;3.702;2022-08-03T02:18:05;21.30;99.90
25688;DHT22;17407;51.120;3.702;2022-08-03T02:20:32;21.30;99.90
25688;DHT22;17407;51.120;3.702;2022-08-03T02:23:00;21.30;99.90
25688;DHT22;17407;51.120;3.702;2022-08-03T02:25:27;21.20;99.90
25688;DHT22;17407;51.120;3.702;2022-08-03T02:28:00;21.30;99.90
25688;DHT22;17407;51.120;3.702;2022-08-03T02:30:33;21.30;99.90
25688;DHT22;17407;51.120;3.702;2022-08-03T02:33:04;21.30;99.90
25688;DHT22;17407;51.120;3.702;2022-08-03T02:35:31;21.20;99.90
25688;DHT22;17407;51.120;3.702;2022-08-03T02:38:04;21.20;99.90
25688;DHT22;17407;51.120;3.702;2022-08-03T02:40:31;21.10;99.90
25688;DHT22;17407;51.120;3.702;2022-08-03T02:43:01;21.10;99.90
25688;DHT22;17407;51.120;3.702;2022-08-03T02:45:27;21.10;99.90
25688;DHT22;17407;51.120;3.702;2022-08-03T02:47:57;21.10;99.90
25688;DHT22;17407;51.120;3.702;2022-08-03T02:50:25;21.10;99.90
25688;DHT22;17407;51.120;3.702;2022-08-03T02:52:52;21.00;99.90
25688;DHT22;17407;51.120;3.702;2022-08-03T02:55:20;21.10;99.90
25688;DHT22;17407;51.120;3.702;2022-08-03T02:57:46;21.10;99.90
25688;DHT22;17407;51.120;3.702;2022-08-03T03:00:13;21.10;99.90
25688;DHT22;17407;51.120;3.702;2022-08-03T03:02:40;21.10;99.90
25688;DHT22;17407;51.120;3.702;2022-08-03T03:05:07;21.00;99.90
25688;DHT22;17407;51.120;3.702;2022-08-03T03:07:35;20.90;99.90
25688;DHT22;17407;51.120;3.702;2022-08-03T03:10:03;20.80;99.90
25688;DHT22;17407;51.120;3.702;2022-08-03T03:12:30;20.90;99.90
25688;DHT22;17407;51.120;3.702;2022-08-03T03:14:57;20.90;99.90
25688;DHT22;17407;51.120;3.702;2022-08-03T03:17:23;20.90;99.90
25688;DHT22;17407;51.120;3.702;2022-08-03T03:19:52;20.90;99.90
25688;DHT22;17407;51.120;3.702;2022-08-03T03:22:18;20.90;99.90
25688;DHT22;17407;51.120;3.702;2022-08-03T03:24:45;21.00;99.90
25688;DHT22;17407;51.120;3.702;2022-08-03T03:27:13;20.90;99.90
25688;DHT22;17407;51.120;3.702;2022-08-03T03:29:40;20.90;99.90
25688;DHT22;17407;51.120;3.702;2022-08-03T03:32:06;20.90;99.90
25688;DHT22;17407;51.120;3.702;2022-08-03T03:34:32;20.90;99.90
25688;DHT22;17407;51.120;3.702;2022-08-03T03:36:58;20.90;99.90
25688;DHT22;17407;51.120;3.702;2022-08-03T03:39:23;20.90;99.90
25688;DHT22;17407;51.120;3.702;2022-08-03T03:41:49;20.90;99.90
25688;DHT22;17407;51.120;3.702;2022-08-03T03:44:15;20.90;99.90
25688;DHT22;17407;51.120;3.702;2022-08-03T03:46:41;20.90;99.90
25688;DHT22;17407;51.120;3.702;2022-08-03T03:49:07;20.90;99.90
25688;DHT22;17407;51.120;3.702;2022-08-03T03:51:33;20.80;99.90
25688;DHT22;17407;51.120;3.702;2022-08-03T03:54:00;20.80;99.90
25688;DHT22;17407;51.120;3.702;2022-08-03T03:56:27;20.80;99.90
25688;DHT22;17407;51.120;3.702;2022-08-03T03:58:53;20.80;99.90
25688;DHT22;17407;51.120;3.702;2022-08-03T04:01:19;20.70;99.90
25688;DHT22;17407;51.120;3.702;2022-08-03T04:03:45;20.70;99.90
25688;DHT22;17407;51.120;3.702;2022-08-03T04:06:11;20.70;99.90
25688;DHT22;17407;51.120;3.702;2022-08-03T04:08:56;20.70;99.90
25688;DHT22;17407;51.120;3.702;2022-08-03T04:11:46;20.60;99.90
25688;DHT22;17407;51.120;3.702;2022-08-03T04:14:34;20.50;99.90
25688;DHT22;17407;51.120;3.702;2022-08-03T04:17:03;20.40;99.90
25688;DHT22;17407;51.120;3.702;2022-08-03T04:21:59;20.40;99.90
25688;DHT22;17407;51.120;3.702;2022-08-03T04:24:32;20.30;99.90
25688;DHT22;17407;51.120;3.702;2022-08-03T04:27:00;20.40;99.90
25688;DHT22;17407;51.120;3.702;2022-08-03T04:29:28;20.40;99.90
25688;DHT22;17407;51.120;3.702;2022-08-03T04:31:58;20.30;99.90
25688;DHT22;17407;51.120;3.702;2022-08-03T04:34:24;20.40;99.90
25688;DHT22;17407;51.120;3.702;2022-08-03T04:36:52;20.40;99.90
25688;DHT22;17407;51.120;3.702;2022-08-03T04:39:23;20.40;99.90
25688;DHT22;17407;51.120;3.702;2022-08-03T04:41:53;20.50;99.90
25688;DHT22;17407;51.120;3.702;2022-08-03T04:44:20;20.50;99.90
25688;DHT22;17407;51.120;3.702;2022-08-03T04:46:48;20.50;99.90
25688;DHT22;17407;51.120;3.702;2022-08-03T04:49:14;20.50;99.90
25688;DHT22;17407;51.120;3.702;2022-08-03T04:51:41;20.50;99.90
25688;DHT22;17407;51.120;3.702;2022-08-03T04:54:14;20.50;99.90
25688;DHT22;17407;51.120;3.702;2022-08-03T04:56:41;20.50;99.90
25688;DHT22;17407;51.120;3.702;2022-08-03T04:59:07;20.50;99.90
25688;DHT22;17407;51.120;3.702;2022-08-03T05:01:34;20.50;99.90
25688;DHT22;17407;51.120;3.702;2022-08-03T05:03:59;20.50;99.90
25688;DHT22;17407;51.120;3.702;2022-08-03T05:06:25;20.50;99.90
25688;DHT22;17407;51.120;3.702;2022-08-03T05:08:52;20.50;99.90
25688;DHT22;17407;51.120;3.702;2022-08-03T05:11:17;20.50;99.90
25688;DHT22;17407;51.120;3.702;2022-08-03T05:13:44;20.40;99.90
25688;DHT22;17407;51.120;3.702;2022-08-03T05:16:10;20.40;99.90
25688;DHT22;17407;51.120;3.702;2022-08-03T05:18:36;20.40;99.90
25688;DHT22;17407;51.120;3.702;2022-08-03T05:21:02;20.40;99.90
25688;DHT22;17407;51.120;3.702;2022-08-03T05:23:29;20.40;99.90
25688;DHT22;17407;51.120;3.702;2022-08-03T05:25:55;20.40;99.90
25688;DHT22;17407;51.120;3.702;2022-08-03T05:28:20;20.40;99.90
25688;DHT22;17407;51.120;3.702;2022-08-03T05:30:46;20.40;99.90
25688;DHT22;17407;51.120;3.702;2022-08-03T05:33:12;20.50;99.90
25688;DHT22;17407;51.120;3.702;2022-08-03T05:35:38;20.50;99.90
25688;DHT22;17407;51.120;3.702;2022-08-03T05:38:03;20.50;99.90
25688;DHT22;17407;51.120;3.702;2022-08-03T05:40:29;20.50;99.90
25688;DHT22;17407;51.120;3.702;2022-08-03T05:42:55;20.50;99.90
25688;DHT22;17407;51.120;3.702;2022-08-03T05:45:21;20.60;99.90
25688;DHT22;17407;51.120;3.702;2022-08-03T05:47:47;20.60;99.90
25688;DHT22;17407;51.120;3.702;2022-08-03T05:50:15;20.60;99.90
25688;DHT22;17407;51.120;3.702;2022-08-03T05:52:41;20.60;99.90
25688;DHT22;17407;51.120;3.702;2022-08-03T05:55:08;20.70;99.90
25688;DHT22;17407;51.120;3.702;2022-08-03T05:57:35;20.70;99.90
25688;DHT22;17407;51.120;3.702;2022-08-03T06:00:05;20.70;99.90
25688;DHT22;17407;51.120;3.702;2022-08-03T06:02:31;20.80;99.90
25688;DHT22;17407;51.120;3.702;2022-08-03T06:04:57;20.90;99.90
25688;DHT22;17407;51.120;3.702;2022-08-03T06:07:22;20.90;99.90
25688;DHT22;17407;51.120;3.702;2022-08-03T06:09:48;21.00;99.90
25688;DHT22;17407;51.120;3.702;2022-08-03T06:12:14;21.10;99.90
25688;DHT22;17407;51.120;3.702;2022-08-03T06:14:39;21.20;99.90
25688;DHT22;17407;51.120;3.702;2022-08-03T06:17:05;21.20;99.90
25688;DHT22;17407;51.120;3.702;2022-08-03T06:19:31;21.20;99.90
25688;DHT22;17407;51.120;3.702;2022-08-03T06:21:56;21.30;99.90
25688;DHT22;17407;51.120;3.702;2022-08-03T06:24:22;21.40;99.90
25688;DHT22;17407;51.120;3.702;2022-08-03T06:26:48;21.40;99.90
25688;DHT22;17407;51.120;3.702;2022-08-03T06:29:14;21.40;99.90
25688;DHT22;17407;51.120;3.702;2022-08-03T06:31:39;21.50;99.90
25688;DHT22;17407;51.120;3.702;2022-08-03T06:34:05;21.50;99.90
25688;DHT22;17407;51.120;3.702;2022-08-03T06:36:31;21.60;99.90
25688;DHT22;17407;51.120;3.702;2022-08-03T06:39:00;21.60;99.90
25688;DHT22;17407;51.120;3.702;2022-08-03T06:41:27;21.70;99.90
25688;DHT22;17407;51.120;3.702;2022-08-03T06:43:53;21.80;99.90
25688;DHT22;17407;51.120;3.702;2022-08-03T06:46:19;21.90;99.90
25688;DHT22;17407;51.120;3.702;2022-08-03T06:48:44;22.00;99.90
25688;DHT22;17407;51.120;3.702;2022-08-03T06:51:10;22.10;99.90
25688;DHT22;17407;51.120;3.702;2022-08-03T06:53:36;22.10;99.90
25688;DHT22;17407;51.120;3.702;2022-08-03T06:56:04;22.20;99.90
25688;DHT22;17407;51.120;3.702;2022-08-03T06:58:30;22.30;99.90
25688;DHT22;17407;51.120;3.702;2022-08-03T07:00:55;22.50;99.90
25688;DHT22;17407;51.120;3.702;2022-08-03T07:03:21;22.50;99.90
25688;DHT22;17407;51.120;3.702;2022-08-03T07:05:47;22.50;99.90
25688;DHT22;17407;51.120;3.702;2022-08-03T07:08:13;22.60;99.90
25688;DHT22;17407;51.120;3.702;2022-08-03T07:10:39;22.70;99.90
25688;DHT22;17407;51.120;3.702;2022-08-03T07:13:05;22.80;99.90
25688;DHT22;17407;51.120;3.702;2022-08-03T07:15:31;22.90;99.90
25688;DHT22;17407;51.120;3.702;2022-08-03T07:17:57;23.00;99.90
25688;DHT22;17407;51.120;3.702;2022-08-03T07:20:23;23.00;99.90
25688;DHT22;17407;51.120;3.702;2022-08-03T07:22:48;23.00;99.90
25688;DHT22;17407;51.120;3.702;2022-08-03T07:25:14;23.10;99.90
25688;DHT22;17407;51.120;3.702;2022-08-03T07:27:43;23.20;99.90
25688;DHT22;17407;51.120;3.702;2022-08-03T07:30:09;23.30;99.90
25688;DHT22;17407;51.120;3.702;2022-08-03T07:32:35;23.40;99.90
25688;DHT22;17407;51.120;3.702;2022-08-03T07:35:02;23.40;99.90
25688;DHT22;17407;51.120;3.702;2022-08-03T07:37:29;23.50;99.90
25688;DHT22;17407;51.120;3.702;2022-08-03T07:39:55;23.50;99.90
25688;DHT22;17407;51.120;3.702;2022-08-03T07:42:21;23.60;99.90
25688;DHT22;17407;51.120;3.702;2022-08-03T07:44:48;23.70;99.90
25688;DHT22;17407;51.120;3.702;2022-08-03T07:47:27;23.70;99.90
25688;DHT22;17407;51.120;3.702;2022-08-03T07:49:54;23.90;99.90
25688;DHT22;17407;51.120;3.702;2022-08-03T07:52:19;23.90;99.90
25688;DHT22;17407;51.120;3.702;2022-08-03T07:55:05;24.10;99.90
25688;DHT22;17407;51.120;3.702;2022-08-03T07:57:31;24.20;99.90
25688;DHT22;17407;51.120;3.702;2022-08-03T07:59:57;24.30;99.90
25688;DHT22;17407;51.120;3.702;2022-08-03T08:02:22;24.40;99.90
25688;DHT22;17407;51.120;3.702;2022-08-03T08:04:48;24.40;99.90
25688;DHT22;17407;51.120;3.702;2022-08-03T08:07:14;24.50;99.90
25688;DHT22;17407;51.120;3.702;2022-08-03T08:09:39;24.60;99.90
25688;DHT22;17407;51.120;3.702;2022-08-03T08:12:05;24.70;99.90
25688;DHT22;17407;51.120;3.702;2022-08-03T08:14:33;24.80;99.90
25688;DHT22;17407;51.120;3.702;2022-08-03T08:16:58;24.90;99.90
25688;DHT22;17407;51.120;3.702;2022-08-03T08:19:24;25.00;99.90
25688;DHT22;17407;51.120;3.702;2022-08-03T08:21:49;25.10;99.90
25688;DHT22;17407;51.120;3.702;2022-08-03T08:24:15;25.20;99.90
25688;DHT22;17407;51.120;3.702;2022-08-03T08:26:41;25.40;99.90
25688;DHT22;17407;51.120;3.702;2022-08-03T08:29:06;25.50;99.90
25688;DHT22;17407;51.120;3.702;2022-08-03T08:31:32;25.60;99.90
25688;DHT22;17407;51.120;3.702;2022-08-03T08:33:57;25.70;99.90
25688;DHT22;17407;51.120;3.702;2022-08-03T08:36:23;25.80;99.90
25688;DHT22;17407;51.120;3.702;2022-08-03T08:38:48;26.00;99.90
25688;DHT22;17407;51.120;3.702;2022-08-03T08:41:15;26.10;99.90
25688;DHT22;17407;51.120;3.702;2022-08-03T08:43:41;26.20;99.90
25688;DHT22;17407;51.120;3.702;2022-08-03T08:46:11;26.30;99.90
25688;DHT22;17407;51.120;3.702;2022-08-03T08:48:40;26.40;99.90
25688;DHT22;17407;51.120;3.702;2022-08-03T08:51:08;26.50;99.90
25688;DHT22;17407;51.120;3.702;2022-08-03T08:53:35;26.60;99.90
25688;DHT22;17407;51.120;3.702;2022-08-03T08:56:02;26.70;99.90
25688;DHT22;17407;51.120;3.702;2022-08-03T08:58:31;26.90;99.90
25688;DHT22;17407;51.120;3.702;2022-08-03T09:00:59;27.00;99.90
25688;DHT22;17407;51.120;3.702;2022-08-03T09:03:24;27.10;99.90
25688;DHT22;17407;51.120;3.702;2022-08-03T09:05:51;27.20;99.90
25688;DHT22;17407;51.120;3.702;2022-08-03T09:08:17;27.30;99.90
25688;DHT22;17407;51.120;3.702;2022-08-03T09:10:43;27.50;99.90
25688;DHT22;17407;51.120;3.702;2022-08-03T09:13:08;27.60;99.90
25688;DHT22;17407;51.120;3.702;2022-08-03T09:15:34;27.80;99.90
25688;DHT22;17407;51.120;3.702;2022-08-03T09:18:02;27.90;99.90
25688;DHT22;17407;51.120;3.702;2022-08-03T09:20:30;28.00;99.90
25688;DHT22;17407;51.120;3.702;2022-08-03T09:25:34;28.20;99.90
25688;DHT22;17407;51.120;3.702;2022-08-03T09:28:10;28.40;99.90
25688;DHT22;17407;51.120;3.702;2022-08-03T09:30:56;28.50;99.90
25688;DHT22;17407;51.120;3.702;2022-08-03T09:33:23;28.70;99.90
25688;DHT22;17407;51.120;3.702;2022-08-03T09:35:48;28.80;99.90
25688;DHT22;17407;51.120;3.702;2022-08-03T09:38:17;28.90;99.90
25688;DHT22;17407;51.120;3.702;2022-08-03T09:40:43;29.00;99.90
25688;DHT22;17407;51.120;3.702;2022-08-03T09:43:10;29.00;99.90
25688;DHT22;17407;51.120;3.702;2022-08-03T09:45:37;29.10;99.90
25688;DHT22;17407;51.120;3.702;2022-08-03T09:48:22;29.30;99.90
25688;DHT22;17407;51.120;3.702;2022-08-03T09:50:59;29.40;99.90
25688;DHT22;17407;51.120;3.702;2022-08-03T09:53:25;29.40;99.90
25688;DHT22;17407;51.120;3.702;2022-08-03T09:55:56;29.40;99.90
25688;DHT22;17407;51.120;3.702;2022-08-03T09:58:23;29.50;99.90
25688;DHT22;17407;51.120;3.702;2022-08-03T10:00:57;29.60;99.90
25688;DHT22;17407;51.120;3.702;2022-08-03T10:03:24;29.70;99.90
25688;DHT22;17407;51.120;3.702;2022-08-03T10:05:50;29.80;99.90
25688;DHT22;17407;51.120;3.702;2022-08-03T10:08:17;29.90;99.90
25688;DHT22;17407;51.120;3.702;2022-08-03T10:10:44;29.90;99.70
25688;DHT22;17407;51.120;3.702;2022-08-03T10:13:12;29.90;99.90
25688;DHT22;17407;51.120;3.702;2022-08-03T10:15:39;29.90;99.90
25688;DHT22;17407;51.120;3.702;2022-08-03T10:18:05;30.00;99.90
25688;DHT22;17407;51.120;3.702;2022-08-03T10:20:35;30.10;99.40
25688;DHT22;17407;51.120;3.702;2022-08-03T10:23:02;30.10;99.20
25688;DHT22;17407;51.120;3.702;2022-08-03T10:25:29;30.10;99.40
25688;DHT22;17407;51.120;3.702;2022-08-03T10:27:55;30.20;99.30
25688;DHT22;17407;51.120;3.702;2022-08-03T10:30:23;30.40;99.30
25688;DHT22;17407;51.120;3.702;2022-08-03T10:33:04;30.50;98.90
25688;DHT22;17407;51.120;3.702;2022-08-03T10:35:35;30.70;98.80
25688;DHT22;17407;51.120;3.702;2022-08-03T10:38:06;30.70;98.10
25688;DHT22;17407;51.120;3.702;2022-08-03T10:40:32;30.80;98.10
25688;DHT22;17407;51.120;3.702;2022-08-03T10:43:05;30.90;98.10
25688;DHT22;17407;51.120;3.702;2022-08-03T10:45:33;31.00;97.90
25688;DHT22;17407;51.120;3.702;2022-08-03T10:48:01;31.10;96.90
25688;DHT22;17407;51.120;3.702;2022-08-03T10:50:27;31.20;97.00
25688;DHT22;17407;51.120;3.702;2022-08-03T10:53:00;31.30;97.30
25688;DHT22;17407;51.120;3.702;2022-08-03T10:55:37;31.50;97.00
25688;DHT22;17407;51.120;3.702;2022-08-03T11:01:07;31.70;95.60
25688;DHT22;17407;51.120;3.702;2022-08-03T11:03:33;31.70;95.00
25688;DHT22;17407;51.120;3.702;2022-08-03T11:06:21;31.70;94.90
25688;DHT22;17407;51.120;3.702;2022-08-03T11:08:48;31.80;95.30
25688;DHT22;17407;51.120;3.702;2022-08-03T11:14:07;31.90;94.60
25688;DHT22;17407;51.120;3.702;2022-08-03T11:16:42;32.10;94.50
25688;DHT22;17407;51.120;3.702;2022-08-03T11:19:11;32.20;94.60
25688;DHT22;17407;51.120;3.702;2022-08-03T11:35:33;32.50;92.10
25688;DHT22;17407;51.120;3.702;2022-08-03T11:38:09;32.50;91.60
25688;DHT22;17407;51.120;3.702;2022-08-03T11:40:46;32.60;92.10
25688;DHT22;17407;51.120;3.702;2022-08-03T11:46:01;32.80;91.60
25688;DHT22;17407;51.120;3.702;2022-08-03T11:48:37;32.90;91.30
25688;DHT22;17407;51.120;3.702;2022-08-03T11:51:17;33.00;90.70
25688;DHT22;17407;51.120;3.702;2022-08-03T11:53:43;33.10;90.80
25688;DHT22;17407;51.120;3.702;2022-08-03T11:56:08;33.10;90.70
25688;DHT22;17407;51.120;3.702;2022-08-03T11:58:34;33.30;88.40
25688;DHT22;17407;51.120;3.702;2022-08-03T12:01:04;33.20;89.40
25688;DHT22;17407;51.120;3.702;2022-08-03T12:03:34;33.30;87.80
25688;DHT22;17407;51.120;3.702;2022-08-03T12:06:00;33.20;89.00
25688;DHT22;17407;51.120;3.702;2022-08-03T12:10:55;33.30;88.60
25688;DHT22;17407;51.120;3.702;2022-08-03T12:13:21;33.40;87.80
25688;DHT22;17407;51.120;3.702;2022-08-03T12:15:56;33.50;87.50
25688;DHT22;17407;51.120;3.702;2022-08-03T12:18:22;33.50;87.40
25688;DHT22;17407;51.120;3.702;2022-08-03T12:20:51;33.50;86.10
25688;DHT22;17407;51.120;3.702;2022-08-03T12:23:17;33.50;85.80
25688;DHT22;17407;51.120;3.702;2022-08-03T12:25:44;33.40;85.40
25688;DHT22;17407;51.120;3.702;2022-08-03T12:28:19;33.40;85.50
25688;DHT22;17407;51.120;3.702;2022-08-03T12:30:49;33.60;85.20
25688;DHT22;17407;51.120;3.702;2022-08-03T12:33:23;33.70;83.80
25688;DHT22;17407;51.120;3.702;2022-08-03T12:36:09;33.50;83.90
25688;DHT22;17407;51.120;3.702;2022-08-03T12:38:37;33.50;85.90
25688;DHT22;17407;51.120;3.702;2022-08-03T12:41:10;33.60;83.40
25688;DHT22;17407;51.120;3.702;2022-08-03T12:43:48;33.70;83.90
25688;DHT22;17407;51.120;3.702;2022-08-03T12:46:16;33.80;83.70
25688;DHT22;17407;51.120;3.702;2022-08-03T12:49:17;33.90;82.70
25688;DHT22;17407;51.120;3.702;2022-08-03T12:54:15;34.00;81.60
25688;DHT22;17407;51.120;3.702;2022-08-03T12:59:37;34.20;79.80
25688;DHT22;17407;51.120;3.702;2022-08-03T13:02:20;34.20;80.70
25688;DHT22;17407;51.120;3.702;2022-08-03T13:04:47;34.30;79.40
25688;DHT22;17407;51.120;3.702;2022-08-03T13:07:14;34.30;80.50
25688;DHT22;17407;51.120;3.702;2022-08-03T13:09:44;34.30;80.10
25688;DHT22;17407;51.120;3.702;2022-08-03T13:12:25;34.50;79.50
25688;DHT22;17407;51.120;3.702;2022-08-03T13:15:00;34.50;80.50
25688;DHT22;17407;51.120;3.702;2022-08-03T13:17:27;34.50;80.30
25688;DHT22;17407;51.120;3.702;2022-08-03T13:19:53;34.70;80.40
25688;DHT22;17407;51.120;3.702;2022-08-03T13:22:23;34.60;77.90
25688;DHT22;17407;51.120;3.702;2022-08-03T13:24:51;34.70;77.30
25688;DHT22;17407;51.120;3.702;2022-08-03T13:27:18;34.70;77.00
25688;DHT22;17407;51.120;3.702;2022-08-03T13:29:43;34.80;77.40
25688;DHT22;17407;51.120;3.702;2022-08-03T13:32:10;34.90;75.60
25688;DHT22;17407;51.120;3.702;2022-08-03T13:34:36;34.90;75.90
25688;DHT22;17407;51.120;3.702;2022-08-03T13:37:02;35.00;74.70
25688;DHT22;17407;51.120;3.702;2022-08-03T13:39:28;35.10;75.70
25688;DHT22;17407;51.120;3.702;2022-08-03T13:41:53;35.20;78.20
25688;DHT22;17407;51.120;3.702;2022-08-03T13:44:19;35.30;74.80
25688;DHT22;17407;51.120;3.702;2022-08-03T13:46:46;35.20;74.10
25688;DHT22;17407;51.120;3.702;2022-08-03T13:49:11;35.10;72.80
25688;DHT22;17407;51.120;3.702;2022-08-03T13:51:37;34.90;73.70
25688;DHT22;17407;51.120;3.702;2022-08-03T13:54:03;34.90;73.70
25688;DHT22;17407;51.120;3.702;2022-08-03T13:56:29;35.00;73.60
25688;DHT22;17407;51.120;3.702;2022-08-03T13:58:56;35.00;73.20
25688;DHT22;17407;51.120;3.702;2022-08-03T14:01:22;35.10;73.10
25688;DHT22;17407;51.120;3.702;2022-08-03T14:03:48;35.10;73.70
25688;DHT22;17407;51.120;3.702;2022-08-03T14:06:21;35.10;72.80
25688;DHT22;17407;51.120;3.702;2022-08-03T14:08:47;35.20;74.70
25688;DHT22;17407;51.120;3.702;2022-08-03T14:11:14;35.20;71.10
25688;DHT22;17407;51.120;3.702;2022-08-03T14:13:39;35.20;72.40
25688;DHT22;17407;51.120;3.702;2022-08-03T14:16:05;35.20;72.30
25688;DHT22;17407;51.120;3.702;2022-08-03T14:18:31;35.20;71.90
25688;DHT22;17407;51.120;3.702;2022-08-03T14:20:58;35.20;72.80
25688;DHT22;17407;51.120;3.702;2022-08-03T14:23:24;35.20;72.70
25688;DHT22;17407;51.120;3.702;2022-08-03T14:25:50;35.30;71.50
25688;DHT22;17407;51.120;3.702;2022-08-03T14:28:15;35.40;71.40
25688;DHT22;17407;51.120;3.702;2022-08-03T14:30:41;35.40;69.40
25688;DHT22;17407;51.120;3.702;2022-08-03T14:33:07;35.40;70.00
25688;DHT22;17407;51.120;3.702;2022-08-03T14:35:32;35.40;69.50
25688;DHT22;17407;51.120;3.702;2022-08-03T14:37:58;35.50;67.10
25688;DHT22;17407;51.120;3.702;2022-08-03T14:40:24;35.60;67.30
25688;DHT22;17407;51.120;3.702;2022-08-03T14:42:49;35.60;67.50
25688;DHT22;17407;51.120;3.702;2022-08-03T14:45:15;35.60;67.60
25688;DHT22;17407;51.120;3.702;2022-08-03T14:47:41;35.70;67.40
25688;DHT22;17407;51.120;3.702;2022-08-03T14:50:07;35.70;66.50
25688;DHT22;17407;51.120;3.702;2022-08-03T14:52:33;35.70;67.30
25688;DHT22;17407;51.120;3.702;2022-08-03T14:54:59;35.80;67.20
25688;DHT22;17407;51.120;3.702;2022-08-03T14:57:25;35.90;66.90
25688;DHT22;17407;51.120;3.702;2022-08-03T14:59:50;35.80;66.20
25688;DHT22;17407;51.120;3.702;2022-08-03T15:02:16;35.60;67.30
25688;DHT22;17407;51.120;3.702;2022-08-03T15:04:42;35.60;67.70
25688;DHT22;17407;51.120;3.702;2022-08-03T15:07:07;35.70;67.90
25688;DHT22;17407;51.120;3.702;2022-08-03T15:09:33;35.70;66.60
25688;DHT22;17407;51.120;3.702;2022-08-03T15:11:59;35.80;66.20
25688;DHT22;17407;51.120;3.702;2022-08-03T15:14:24;35.80;65.10
25688;DHT22;17407;51.120;3.702;2022-08-03T15:16:50;35.70;66.00
25688;DHT22;17407;51.120;3.702;2022-08-03T15:19:16;35.70;65.90
25688;DHT22;17407;51.120;3.702;2022-08-03T15:21:42;35.80;66.70
25688;DHT22;17407;51.120;3.702;2022-08-03T15:24:07;35.80;65.90
25688;DHT22;17407;51.120;3.702;2022-08-03T15:26:33;35.90;65.60
25688;DHT22;17407;51.120;3.702;2022-08-03T15:28:59;36.00;65.80
25688;DHT22;17407;51.120;3.702;2022-08-03T15:31:24;36.00;65.40
25688;DHT22;17407;51.120;3.702;2022-08-03T15:33:50;36.00;65.10
25688;DHT22;17407;51.120;3.702;2022-08-03T15:36:19;36.00;65.70
25688;DHT22;17407;51.120;3.702;2022-08-03T15:38:45;36.20;64.20
25688;DHT22;17407;51.120;3.702;2022-08-03T15:41:12;36.20;64.90
25688;DHT22;17407;51.120;3.702;2022-08-03T15:43:39;36.20;63.70
25688;DHT22;17407;51.120;3.702;2022-08-03T15:46:05;36.20;64.70
25688;DHT22;17407;51.120;3.702;2022-08-03T15:48:30;36.30;64.20
25688;DHT22;17407;51.120;3.702;2022-08-03T15:50:56;36.30;63.80
25688;DHT22;17407;51.120;3.702;2022-08-03T15:53:22;36.40;63.70
25688;DHT22;17407;51.120;3.702;2022-08-03T15:55:48;36.30;63.70
25688;DHT22;17407;51.120;3.702;2022-08-03T15:58:13;36.30;63.60
25688;DHT22;17407;51.120;3.702;2022-08-03T16:00:40;36.30;64.30
25688;DHT22;17407;51.120;3.702;2022-08-03T16:03:06;36.30;63.90
25688;DHT22;17407;51.120;3.702;2022-08-03T16:05:32;36.30;71.00
25688;DHT22;17407;51.120;3.702;2022-08-03T16:07:57;36.30;72.50
25688;DHT22;17407;51.120;3.702;2022-08-03T16:10:23;36.10;73.90
25688;DHT22;17407;51.120;3.702;2022-08-03T16:12:53;36.00;75.50
25688;DHT22;17407;51.120;3.702;2022-08-03T16:15:19;36.00;76.30
25688;DHT22;17407;51.120;3.702;2022-08-03T16:17:45;35.90;76.00
25688;DHT22;17407;51.120;3.702;2022-08-03T16:20:11;35.90;76.90
25688;DHT22;17407;51.120;3.702;2022-08-03T16:22:45;35.70;76.50